createdAt,value
2022-11-15T00:02:16.470Z,101094.31
2022-11-15T00:04:58.871Z,101100.66
2022-11-15T00:07:55.056Z,101094.38
2022-11-15T00:10:38.272Z,101089.47
2022-11-15T00:13:20.658Z,101086.88
2022-11-15T00:16:05.763Z,101088.78
2022-11-15T00:18:50.628Z,101090.69
2022-11-15T00:21:32.918Z,101076.16
2022-11-15T00:24:15.089Z,101070.97
2022-11-15T00:26:57.308Z,101074.78
2022-11-15T00:29:44.091Z,101064.38
2022-11-15T00:32:27.866Z,101064.28
2022-11-15T00:35:10.937Z,101073.41
2022-11-15T00:37:55.433Z,101067.78
2022-11-15T00:40:37.887Z,101063.78
2022-11-15T00:43:20.401Z,101061.34
2022-11-15T00:46:03.309Z,101065.81
2022-11-15T00:48:47.096Z,101056.34
2022-11-15T00:51:29.721Z,101049.06
2022-11-15T00:54:12.263Z,101047.28
2022-11-15T00:56:54.329Z,101053.78
2022-11-15T00:59:36.295Z,101052.84
2022-11-15T01:02:18.656Z,101052.19
2022-11-15T01:05:02.085Z,101058.16
2022-11-15T01:07:44.164Z,101049.78
2022-11-15T01:10:26.936Z,101045.41
2022-11-15T01:13:08.931Z,101041.09
2022-11-15T01:15:51.157Z,101039.22
2022-11-15T01:18:33.345Z,101030.16
2022-11-15T01:21:19.755Z,101028.91
2022-11-15T01:24:02.034Z,101034.38
2022-11-15T01:26:44.556Z,101026.09
2022-11-15T01:29:26.778Z,101022.66
2022-11-15T01:32:08.778Z,101021.94
2022-11-15T01:34:51.109Z,101021.00
2022-11-15T01:37:34.824Z,101014.81
2022-11-15T01:40:17.545Z,101007.78
2022-11-15T01:42:59.862Z,101014.19
2022-11-15T01:45:42.094Z,100993.16
2022-11-15T01:48:28.388Z,100998.47
2022-11-15T01:51:14.168Z,100995.03
2022-11-15T01:54:03.196Z,100985.41
2022-11-15T01:56:50.184Z,100983.56
2022-11-15T01:59:33.462Z,100972.34
2022-11-15T02:02:16.021Z,100979.16
2022-11-15T02:04:58.144Z,100974.97
2022-11-15T02:07:40.507Z,100982.75
2022-11-15T02:10:26.813Z,100973.47
2022-11-15T02:13:08.853Z,100976.22
2022-11-15T02:16:02.976Z,100969.63
2022-11-15T02:18:55.086Z,100981.03
2022-11-15T02:21:45.944Z,100970.72
2022-11-15T02:25:04.034Z,100978.69
2022-11-15T02:28:28.775Z,100973.28
2022-11-15T02:31:16.470Z,100976.13
2022-11-15T02:34:08.301Z,100979.25
2022-11-15T02:37:01.599Z,100975.41
2022-11-15T02:39:52.148Z,100977.16
2022-11-15T02:42:56.491Z,100972.59
2022-11-15T02:45:43.209Z,100962.13
2022-11-15T02:48:28.672Z,100960.06
2022-11-15T02:51:11.827Z,100957.88
2022-11-15T02:53:53.626Z,100958.06
2022-11-15T02:56:35.757Z,100956.97
2022-11-15T02:59:50.694Z,100956.78
2022-11-15T03:03:02.859Z,100963.97
2022-11-15T03:05:56.513Z,100953.34
2022-11-15T03:08:49.737Z,100950.78
2022-11-15T03:11:35.575Z,100958.75
2022-11-15T03:14:24.646Z,100949.94
2022-11-15T03:17:18.782Z,100949.97
2022-11-15T03:20:03.939Z,100952.72
2022-11-15T03:22:50.478Z,100959.63
2022-11-15T03:25:36.970Z,100955.38
2022-11-15T03:28:22.869Z,100948.53
2022-11-15T03:31:27.433Z,100953.66
2022-11-15T03:34:15.208Z,100943.78
2022-11-15T03:36:57.954Z,100938.44
2022-11-15T03:39:41.711Z,100946.22
2022-11-15T03:42:30.665Z,100944.38
2022-11-15T03:45:18.078Z,100945.69
2022-11-15T03:48:06.379Z,100941.00
2022-11-15T03:50:49.558Z,100938.00
2022-11-15T03:53:33.179Z,100936.00
2022-11-15T03:56:16.916Z,100938.47
2022-11-15T03:58:58.982Z,100937.56
2022-11-15T04:01:41.208Z,100931.63
2022-11-15T04:04:23.475Z,100931.91
2022-11-15T04:07:05.552Z,100932.63
2022-11-15T04:10:06.565Z,100926.22
2022-11-15T04:12:50.250Z,100926.44
2022-11-15T04:15:32.438Z,100924.44
2022-11-15T04:18:14.558Z,100924.44
2022-11-15T04:21:14.258Z,100921.91
2022-11-15T04:24:14.414Z,100920.50
2022-11-15T04:26:56.566Z,100935.06
2022-11-15T04:29:40.216Z,100925.69
2022-11-15T04:32:22.287Z,100924.50
2022-11-15T04:35:04.467Z,100923.66
2022-11-15T04:37:49.281Z,100928.88
2022-11-15T04:40:32.106Z,100922.72
2022-11-15T04:43:14.257Z,100920.06
2022-11-15T04:45:58.252Z,100912.16
2022-11-15T04:48:40.099Z,100914.88
2022-11-15T04:51:23.183Z,100913.34
2022-11-15T04:54:05.665Z,100911.59
2022-11-15T04:56:48.166Z,100915.09
2022-11-15T04:59:30.149Z,100910.50
2022-11-15T05:02:13.706Z,100913.25
2022-11-15T05:04:54.718Z,100914.81
2022-11-15T05:07:36.586Z,100913.16
2022-11-15T05:10:19.555Z,100910.50
2022-11-15T05:13:01.749Z,100911.91
2022-11-15T05:15:43.900Z,100913.66
2022-11-15T05:18:27.110Z,100909.66
2022-11-15T05:21:12.297Z,100918.56
2022-11-15T05:23:54.782Z,100924.09
2022-11-15T05:26:37.301Z,100922.31
2022-11-15T05:29:19.400Z,100917.00
2022-11-15T05:32:01.975Z,100918.69
2022-11-15T05:34:45.738Z,100911.84
2022-11-15T05:37:27.808Z,100912.06
2022-11-15T05:40:11.485Z,100909.19
2022-11-15T05:42:53.466Z,100913.66
2022-11-15T05:45:37.222Z,100917.13
2022-11-15T05:48:19.789Z,100912.69
2022-11-15T05:51:04.376Z,100914.72
2022-11-15T05:53:47.082Z,100913.69
2022-11-15T05:56:29.158Z,100909.31
2022-11-15T05:59:13.201Z,100917.28
2022-11-15T06:01:55.466Z,100917.94
2022-11-15T06:04:37.754Z,100920.41
2022-11-15T06:07:21.406Z,100913.47
2022-11-15T06:10:03.726Z,100922.59
2022-11-15T06:12:45.480Z,100919.31
2022-11-15T06:15:28.433Z,100918.00
2022-11-15T06:18:10.448Z,100922.44
2022-11-15T06:20:52.712Z,100919.72
2022-11-15T06:23:37.389Z,100920.66
2022-11-15T06:26:19.653Z,100922.69
2022-11-15T06:29:01.681Z,100926.19
2022-11-15T06:31:44.033Z,100924.53
2022-11-15T06:34:26.292Z,100921.75
2022-11-15T06:37:08.278Z,100925.34
2022-11-15T06:39:51.622Z,100923.53
2022-11-15T06:42:33.875Z,100928.78
2022-11-15T06:45:16.086Z,100930.63
2022-11-15T06:47:58.203Z,100936.56
2022-11-15T06:50:40.607Z,100936.56
2022-11-15T06:53:23.323Z,100944.63
2022-11-15T06:56:10.089Z,100934.72
2022-11-15T06:58:52.077Z,100939.44
2022-11-15T07:01:34.673Z,100939.00
2022-11-15T07:04:16.717Z,100946.97
2022-11-15T07:06:58.814Z,100940.72
2022-11-15T07:09:41.247Z,100944.19
2022-11-15T07:12:24.366Z,100945.50
2022-11-15T07:15:08.302Z,100958.56
2022-11-15T07:17:50.713Z,100958.66
2022-11-15T07:20:32.738Z,100954.69
2022-11-15T07:23:15.221Z,100955.38
2022-11-15T07:26:00.331Z,100963.22
2022-11-15T07:28:44.394Z,100960.16
2022-11-15T07:31:26.569Z,100961.75
2022-11-15T07:34:09.557Z,100964.00
2022-11-15T07:36:51.833Z,100954.06
2022-11-15T07:39:34.003Z,100962.59
2022-11-15T07:42:33.354Z,100959.72
2022-11-15T07:45:17.217Z,100954.22
2022-11-15T07:47:59.673Z,100951.19
2022-11-15T07:50:44.229Z,100949.13
2022-11-15T07:53:26.413Z,100955.06
2022-11-15T07:56:08.983Z,100953.78
2022-11-15T07:58:51.538Z,100943.47
2022-11-15T08:01:35.296Z,100951.09
2022-11-15T08:04:17.749Z,100946.13
2022-11-15T08:07:00.623Z,100944.63
2022-11-15T08:09:42.811Z,100942.59
2022-11-15T08:12:25.740Z,100934.50
2022-11-15T08:15:09.149Z,100931.00
2022-11-15T08:17:57.964Z,100935.72
2022-11-15T08:20:40.294Z,100934.88
2022-11-15T08:23:22.493Z,100934.25
2022-11-15T08:26:05.449Z,100928.31
2022-11-15T08:28:47.672Z,100939.28
2022-11-15T08:31:29.666Z,100931.44
2022-11-15T08:34:12.939Z,100924.53
2022-11-15T08:36:54.789Z,100925.34
2022-11-15T08:39:36.994Z,100933.63
2022-11-15T08:42:20.179Z,100931.28
2022-11-15T08:45:02.588Z,100930.81
2022-11-15T08:47:48.454Z,100931.00
2022-11-15T08:50:34.810Z,100927.56
2022-11-15T08:53:16.984Z,100926.25
2022-11-15T08:55:58.750Z,100930.59
2022-11-15T08:58:41.094Z,100938.53
2022-11-15T09:01:24.000Z,100931.50
2022-11-15T09:04:06.578Z,100920.59
2022-11-15T09:06:50.154Z,100919.00
2022-11-15T09:09:32.197Z,100922.53
2022-11-15T09:12:14.574Z,100919.03
2022-11-15T09:14:57.002Z,100925.34
2022-11-15T09:17:39.106Z,100920.59
2022-11-15T09:20:21.559Z,100914.59
2022-11-15T09:23:06.615Z,100912.59
2022-11-15T09:25:49.123Z,100914.75
2022-11-15T09:28:32.013Z,100906.66
2022-11-15T09:31:17.963Z,100917.66
2022-11-15T09:34:03.228Z,100914.94
2022-11-15T09:36:45.907Z,100924.16
2022-11-15T09:39:29.719Z,100919.16
2022-11-15T09:42:40.279Z,100920.47
2022-11-15T09:45:28.866Z,100921.22
2022-11-15T09:48:49.178Z,100919.59
2022-11-15T09:51:35.542Z,100914.22
2022-11-15T09:54:37.843Z,100911.22
2022-11-15T09:56:52.615Z,100913.56
2022-11-15T09:59:32.520Z,100914.47
2022-11-15T10:02:10.807Z,100909.28
2022-11-15T10:04:34.892Z,100904.66
2022-11-15T10:07:16.106Z,100906.88
2022-11-15T10:09:49.679Z,100899.44
2022-11-15T10:12:16.482Z,100897.03
2022-11-15T10:14:40.184Z,100899.53
2022-11-15T10:17:23.879Z,100887.34
2022-11-15T10:20:04.088Z,100882.19
2022-11-15T10:22:32.684Z,100877.75
2022-11-15T10:25:19.208Z,100877.50
2022-11-15T10:27:45.901Z,100870.06
2022-11-15T10:30:15.809Z,100865.78
2022-11-15T10:32:39.987Z,100865.06
2022-11-15T10:35:23.981Z,100862.13
2022-11-15T10:37:47.605Z,100854.28
2022-11-15T10:40:21.822Z,100853.84
2022-11-15T10:42:47.022Z,100843.34
2022-11-15T10:45:27.927Z,100845.69
2022-11-15T10:47:51.687Z,100838.31
2022-11-15T10:50:31.266Z,100836.72
2022-11-15T10:52:55.621Z,100831.41
2022-11-15T10:55:29.808Z,100816.97
2022-11-15T10:57:57.436Z,100817.13
2022-11-15T11:00:34.625Z,100809.28
2022-11-15T11:03:05.150Z,100809.97
2022-11-15T11:05:36.555Z,100815.09
2022-11-15T11:08:07.508Z,100808.31
2022-11-15T11:13:22.760Z,100805.91
2022-11-15T11:15:49.598Z,100803.50
2022-11-15T11:18:24.241Z,100795.59
2022-11-15T11:20:54.282Z,100798.75
2022-11-15T11:23:39.313Z,100802.03
2022-11-15T11:26:26.011Z,100791.69
2022-11-15T11:28:58.989Z,100797.34
2022-11-15T11:31:36.218Z,100795.69
2022-11-15T11:34:15.536Z,100781.34
2022-11-15T11:36:47.898Z,100793.28
2022-11-15T11:39:28.981Z,100783.81
2022-11-15T11:42:04.531Z,100782.25
2022-11-15T11:44:43.070Z,100782.38
2022-11-15T11:47:12.698Z,100782.66
2022-11-15T11:49:45.905Z,100781.41
2022-11-15T11:52:18.223Z,100776.44
2022-11-15T11:54:54.978Z,100776.72
2022-11-15T11:57:28.085Z,100772.34
2022-11-15T11:59:59.111Z,100764.13
2022-11-15T12:02:30.895Z,100765.41
2022-11-15T12:05:03.842Z,100760.28
2022-11-15T12:07:33.340Z,100762.31
2022-11-15T12:10:02.467Z,100758.16
2022-11-15T12:12:38.774Z,100752.38
2022-11-15T12:15:14.161Z,100757.19
2022-11-15T12:17:39.618Z,100761.47
2022-11-15T12:20:10.277Z,100760.44
2022-11-15T12:22:41.262Z,100759.94
2022-11-15T12:25:10.116Z,100747.00
2022-11-15T12:27:40.744Z,100737.34
2022-11-15T12:30:12.891Z,100740.06
2022-11-15T12:32:39.732Z,100732.06
2022-11-15T12:35:06.403Z,100748.41
2022-11-15T12:37:56.095Z,100739.06
2022-11-15T12:40:39.172Z,100734.94
2022-11-15T12:43:40.810Z,100735.81
2022-11-15T12:46:08.246Z,100725.56
2022-11-15T12:48:55.024Z,100726.25
2022-11-15T12:51:19.164Z,100727.66
2022-11-15T12:53:42.830Z,100719.16
2022-11-15T12:56:25.034Z,100717.88
2022-11-15T12:58:52.789Z,100721.69
2022-11-15T13:01:57.102Z,100710.91
2022-11-15T13:04:30.670Z,100716.84
2022-11-15T13:06:56.737Z,100718.16
2022-11-15T13:09:57.757Z,100721.94
2022-11-15T13:12:56.302Z,100717.28
2022-11-15T13:15:43.206Z,100715.38
2022-11-15T13:18:36.379Z,100714.00
2022-11-15T13:21:02.600Z,100712.25
2022-11-15T13:23:26.823Z,100706.56
2022-11-15T13:26:12.412Z,100701.50
2022-11-15T13:28:39.865Z,100704.59
2022-11-15T13:31:22.042Z,100703.44
2022-11-15T13:33:47.265Z,100704.59
2022-11-15T13:36:18.493Z,100704.44
2022-11-15T13:38:43.743Z,100693.06
2022-11-15T13:41:21.707Z,100695.88
2022-11-15T13:43:45.266Z,100696.06
2022-11-15T13:46:14.048Z,100699.03
2022-11-15T13:48:38.304Z,100695.78
2022-11-15T13:51:05.602Z,100701.34
2022-11-15T13:53:29.472Z,100700.19
2022-11-15T13:55:54.396Z,100695.94
2022-11-15T13:58:23.923Z,100695.09
2022-11-15T14:00:48.477Z,100695.53
2022-11-15T14:03:21.573Z,100700.94
2022-11-15T14:05:45.416Z,100696.00
2022-11-15T14:08:26.084Z,100697.13
2022-11-15T14:10:49.674Z,100693.63
2022-11-15T14:13:29.775Z,100695.03
2022-11-15T14:15:53.399Z,100693.19
2022-11-15T14:18:46.240Z,100692.78
2022-11-15T14:21:11.273Z,100690.09
2022-11-15T14:23:36.290Z,100697.63
2022-11-15T14:26:01.552Z,100683.28
2022-11-15T14:28:40.216Z,100696.16
2022-11-15T14:31:11.878Z,100696.63
2022-11-15T14:33:39.990Z,100698.47
2022-11-15T14:36:08.821Z,100698.16
2022-11-15T14:38:32.986Z,100697.88
2022-11-15T14:40:59.375Z,100684.81
2022-11-15T14:43:23.053Z,100685.94
2022-11-15T14:45:47.131Z,100686.53
2022-11-15T14:48:10.901Z,100675.31
2022-11-15T14:50:35.962Z,100670.06
2022-11-15T14:52:59.638Z,100677.72
2022-11-15T14:55:26.365Z,100675.75
2022-11-15T14:57:51.979Z,100676.84
2022-11-15T15:00:16.792Z,100679.53
2022-11-15T15:02:40.600Z,100674.00
2022-11-15T15:05:09.504Z,100666.34
2022-11-15T15:07:33.250Z,100659.69
2022-11-15T15:10:24.592Z,100661.66
2022-11-15T15:12:40.708Z,100663.59
2022-11-15T15:15:07.001Z,100652.81
2022-11-15T15:17:30.844Z,100658.28
2022-11-15T15:19:54.518Z,100648.22
2022-11-15T15:22:20.933Z,100648.63
2022-11-15T15:24:44.763Z,100646.19
2022-11-15T15:27:08.811Z,100649.84
2022-11-15T15:29:32.370Z,100651.66
2022-11-15T15:31:57.414Z,100645.13
2022-11-15T15:34:21.035Z,100647.03
2022-11-15T15:36:44.623Z,100646.75
2022-11-15T15:39:11.017Z,100651.69
2022-11-15T15:41:34.682Z,100641.44
2022-11-15T15:43:58.213Z,100656.78
2022-11-15T15:46:22.701Z,100646.44
2022-11-15T15:48:48.187Z,100647.88
2022-11-15T15:51:18.702Z,100648.59
2022-11-15T15:53:43.710Z,100642.75
2022-11-15T15:56:09.029Z,100644.25
2022-11-15T15:58:33.183Z,100634.22
2022-11-15T16:00:57.083Z,100641.16
2022-11-15T16:03:20.732Z,100635.50
2022-11-15T16:05:45.965Z,100637.75
2022-11-15T16:08:19.789Z,100631.19
2022-11-15T16:10:43.357Z,100636.47
2022-11-15T16:13:06.884Z,100633.19
2022-11-15T16:15:33.319Z,100633.59
2022-11-15T16:17:58.581Z,100626.50
2022-11-15T16:20:36.436Z,100625.06
2022-11-15T16:23:07.505Z,100624.94
2022-11-15T16:25:36.370Z,100624.47
2022-11-15T16:27:59.934Z,100625.44
2022-11-15T16:30:24.902Z,100620.06
2022-11-15T16:32:48.868Z,100624.72
2022-11-15T16:35:14.463Z,100626.66
2022-11-15T16:37:38.032Z,100630.06
2022-11-15T16:40:03.101Z,100620.81
2022-11-15T16:42:26.741Z,100618.13
2022-11-15T16:44:50.474Z,100616.78
2022-11-15T16:47:20.059Z,100618.38
2022-11-15T16:49:45.993Z,100620.84
2022-11-15T16:52:09.543Z,100621.31
2022-11-15T16:54:33.117Z,100621.78
2022-11-15T16:56:58.046Z,100623.97
2022-11-15T16:59:21.627Z,100618.34
2022-11-15T17:01:51.676Z,100622.84
2022-11-15T17:04:16.489Z,100619.81
2022-11-15T17:06:40.622Z,100622.97
2022-11-15T17:09:04.242Z,100625.78
2022-11-15T17:11:27.755Z,100618.84
2022-11-15T17:13:53.219Z,100627.72
2022-11-15T17:16:18.923Z,100617.59
2022-11-15T17:18:45.598Z,100617.34
2022-11-15T17:21:14.542Z,100612.41
2022-11-15T17:23:38.234Z,100616.06
2022-11-15T17:26:17.783Z,100622.16
2022-11-15T17:28:47.911Z,100615.69
2022-11-15T17:31:14.453Z,100616.16
2022-11-15T17:33:39.062Z,100610.44
2022-11-15T17:36:05.414Z,100614.34
2022-11-15T17:38:30.207Z,100611.25
2022-11-15T17:41:03.375Z,100605.97
2022-11-15T17:43:26.983Z,100610.88
2022-11-15T17:45:50.523Z,100609.38
2022-11-15T17:48:15.509Z,100605.88
2022-11-15T17:50:39.098Z,100605.19
2022-11-15T17:53:02.709Z,100600.34
2022-11-15T17:55:26.246Z,100611.50
2022-11-15T17:57:50.007Z,100619.78
2022-11-15T18:00:15.181Z,100614.03
2022-11-15T18:02:38.918Z,100611.59
2022-11-15T18:05:04.267Z,100614.91
2022-11-15T18:07:28.008Z,100614.31
2022-11-15T18:09:51.690Z,100613.41
2022-11-15T18:12:15.301Z,100619.66
2022-11-15T18:14:39.250Z,100616.81
2022-11-15T18:17:02.937Z,100611.94
2022-11-15T18:19:26.492Z,100611.09
2022-11-15T18:21:57.638Z,100602.56
2022-11-15T18:24:21.311Z,100600.63
2022-11-15T18:26:44.856Z,100592.78
2022-11-15T18:29:08.413Z,100593.03
2022-11-15T18:31:33.102Z,100593.78
2022-11-15T18:33:57.339Z,100585.09
2022-11-15T18:36:25.097Z,100580.28
2022-11-15T18:38:50.286Z,100587.63
2022-11-15T18:41:17.926Z,100584.00
2022-11-15T18:43:42.670Z,100586.03
2022-11-15T18:46:09.060Z,100582.72
2022-11-15T18:48:36.249Z,100586.03
2022-11-15T18:51:05.284Z,100587.75
2022-11-15T18:53:29.850Z,100586.88
2022-11-15T18:55:54.863Z,100587.56
2022-11-15T18:58:18.458Z,100589.16
2022-11-15T19:00:42.011Z,100590.75
2022-11-15T19:03:05.734Z,100597.59
2022-11-15T19:05:29.556Z,100595.13
2022-11-15T19:07:53.153Z,100594.31
2022-11-15T19:10:17.386Z,100585.66
2022-11-15T19:12:42.394Z,100584.88
2022-11-15T19:15:10.192Z,100585.22
2022-11-15T19:17:34.064Z,100587.44
2022-11-15T19:19:57.587Z,100578.91
2022-11-15T19:22:21.162Z,100581.25
2022-11-15T19:24:44.685Z,100582.66
2022-11-15T19:27:08.389Z,100585.22
2022-11-15T19:29:33.313Z,100587.31
2022-11-15T19:31:56.958Z,100583.94
2022-11-15T19:34:20.542Z,100581.97
2022-11-15T19:36:45.838Z,100584.78
2022-11-15T19:39:12.964Z,100580.81
2022-11-15T19:41:38.691Z,100586.28
2022-11-15T19:44:02.543Z,100585.59
2022-11-15T19:46:28.158Z,100575.22
2022-11-15T19:48:52.543Z,100585.41
2022-11-15T19:51:19.292Z,100583.16
2022-11-15T19:53:43.511Z,100594.25
2022-11-15T19:56:09.523Z,100588.59
2022-11-15T19:58:34.742Z,100597.22
2022-11-15T20:01:03.400Z,100600.03
2022-11-15T20:03:28.582Z,100592.97
2022-11-15T20:05:52.273Z,100603.59
2022-11-15T20:08:15.798Z,100595.44
2022-11-15T20:10:39.403Z,100590.31
2022-11-15T20:13:03.177Z,100591.50
2022-11-15T20:15:26.791Z,100581.00
2022-11-15T20:17:50.340Z,100578.66
2022-11-15T20:20:15.677Z,100583.69
2022-11-15T20:22:39.406Z,100577.69
2022-11-15T20:25:03.266Z,100582.72
2022-11-15T20:27:27.510Z,100575.22
2022-11-15T20:29:51.900Z,100584.63
2022-11-15T20:32:15.522Z,100576.19
2022-11-15T20:34:39.143Z,100581.50
2022-11-15T20:37:04.039Z,100579.41
2022-11-15T20:39:27.718Z,100573.31
2022-11-15T20:41:51.413Z,100578.16
2022-11-15T20:44:15.110Z,100574.28
2022-11-15T20:46:38.811Z,100581.97
2022-11-15T20:49:02.695Z,100584.75
2022-11-15T20:51:26.621Z,100582.72
2022-11-15T20:53:52.167Z,100571.91
2022-11-15T20:56:18.821Z,100569.88
2022-11-15T20:58:43.549Z,100566.19
2022-11-15T21:01:09.510Z,100571.53
2022-11-15T21:03:33.778Z,100569.81
2022-11-15T21:05:59.473Z,100567.22
2022-11-15T21:08:25.791Z,100570.13
2022-11-15T21:11:15.089Z,100567.66
2022-11-15T21:13:39.828Z,100566.56
2022-11-15T21:16:03.791Z,100562.94
2022-11-15T21:18:27.534Z,100564.03
2022-11-15T21:20:52.130Z,100564.50
2022-11-15T21:23:15.778Z,100565.66
2022-11-15T21:25:39.329Z,100563.53
2022-11-15T21:28:04.474Z,100559.28
2022-11-15T21:30:28.577Z,100555.88
2022-11-15T21:32:52.142Z,100549.47
2022-11-15T21:35:15.727Z,100548.50
2022-11-15T21:37:39.327Z,100548.97
2022-11-15T21:40:02.905Z,100550.16
2022-11-15T21:42:26.512Z,100548.63
2022-11-15T21:44:51.442Z,100545.84
2022-11-15T21:47:14.999Z,100539.31
2022-11-15T21:49:38.518Z,100542.00
2022-11-15T21:52:02.217Z,100547.09
2022-11-15T21:54:25.787Z,100544.16
2022-11-15T21:56:49.421Z,100536.22
2022-11-15T21:59:12.961Z,100547.34
2022-11-15T22:01:55.454Z,100536.72
2022-11-15T22:04:19.270Z,100537.50
2022-11-15T22:06:42.910Z,100549.69
2022-11-15T22:09:07.760Z,100536.53
2022-11-15T22:11:31.559Z,100543.00
2022-11-15T22:13:55.152Z,100538.41
2022-11-15T22:16:18.678Z,100536.84
2022-11-15T22:18:43.965Z,100540.44
2022-11-15T22:21:11.260Z,100537.31
2022-11-15T22:23:37.301Z,100529.34
2022-11-15T22:26:01.593Z,100528.78
2022-11-15T22:28:25.908Z,100527.91
2022-11-15T22:30:52.622Z,100522.38
2022-11-15T22:33:17.164Z,100524.91
2022-11-15T22:35:42.549Z,100520.13
2022-11-15T22:38:06.496Z,100519.81
2022-11-15T22:40:30.244Z,100520.78
2022-11-15T22:42:54.057Z,100516.38
2022-11-15T22:45:17.921Z,100515.31
2022-11-15T22:47:41.757Z,100513.53
2022-11-15T22:50:06.537Z,100508.88
2022-11-15T22:52:31.844Z,100499.41
2022-11-15T22:54:55.564Z,100497.25
2022-11-15T22:57:19.382Z,100494.06
2022-11-15T22:59:43.092Z,100490.81
2022-11-15T23:02:06.918Z,100481.78
2022-11-15T23:04:30.897Z,100482.31
2022-11-15T23:06:54.979Z,100481.84
2022-11-15T23:09:20.206Z,100466.84
2022-11-15T23:12:01.538Z,100472.19
2022-11-15T23:14:25.545Z,100470.66
2022-11-15T23:16:49.288Z,100466.41
2022-11-15T23:19:13.946Z,100468.22
2022-11-15T23:21:57.619Z,100464.69
2022-11-15T23:24:23.942Z,100469.00
2022-11-15T23:26:49.866Z,100470.88
2022-11-15T23:29:16.546Z,100463.28
2022-11-15T23:32:01.900Z,100462.00
2022-11-15T23:34:26.165Z,100464.69
2022-11-15T23:36:49.925Z,100478.16
2022-11-15T23:39:13.709Z,100479.53
2022-11-15T23:41:39.103Z,100475.50
2022-11-15T23:44:03.126Z,100480.50
2022-11-15T23:46:27.252Z,100477.63
2022-11-15T23:48:51.029Z,100477.06
2022-11-15T23:51:14.890Z,100473.47
2022-11-15T23:53:38.722Z,100473.34
2022-11-15T23:56:05.441Z,100471.31
2022-11-15T23:58:30.781Z,100471.34
